McDonald, Kansas
Current Conditions -  °F | °C
As of 4:15 AM on Sunday 25 Jan 2015 (Local Time) from KSYF Reporting Station
Clear Clear  
Wind Chill: 29°   Ceiling: Unl
Heat Index: 39°   Visibility: 10mi
Dew Point: 23°   Wind: 18mph
Humidity: 53%   Direction: 320°NW
Pressure: 30.05"   Gusts: 26mph
Location:  39.79°N, 101.38°W
Report Text: KSYF 251015Z AUTO 32016G23KT 10SM CLR 04/M05 A3005 RMK AO2 T00371051
Loading
Personal Weather Stations






























Interactive Weather Map New forecast layout! Learn more

10-Day Weather Forecast

Advertisements
Track Severe Weather on mobile